createdAt,value
2023-05-12T00:02:13.833Z,96268.22
2023-05-12T00:04:45.450Z,96266.06
2023-05-12T00:07:17.211Z,96262.41
2023-05-12T00:09:48.942Z,96260.56
2023-05-12T00:12:20.533Z,96257.94
2023-05-12T00:14:52.163Z,96256.34
2023-05-12T00:17:23.762Z,96251.47
2023-05-12T00:22:26.915Z,96257.75
2023-05-12T00:24:58.528Z,96259.91
2023-05-12T00:27:32.036Z,96260.22
2023-05-12T00:30:04.148Z,96256.66
2023-05-12T00:32:35.886Z,96252.53
2023-05-12T00:35:09.086Z,96251.78
2023-05-12T00:37:40.864Z,96251.03
2023-05-12T00:40:12.784Z,96254.69
2023-05-12T00:42:44.371Z,96258.81
2023-05-12T00:45:16.188Z,96256.22
2023-05-12T00:47:47.862Z,96254.69
2023-05-12T00:50:19.883Z,96257.72
2023-05-12T00:52:52.704Z,96256.63
2023-05-12T00:55:25.746Z,96257.31
2023-05-12T00:57:57.317Z,96252.31
2023-05-12T01:00:29.600Z,96255.56
2023-05-12T01:03:01.777Z,96253.16
2023-05-12T01:06:01.707Z,96257.72
2023-05-12T01:08:33.233Z,96253.28
2023-05-12T01:11:04.998Z,96255.16
2023-05-12T01:13:37.278Z,96249.50
2023-05-12T01:16:13.237Z,96254.06
2023-05-12T01:18:50.017Z,96251.03
2023-05-12T01:21:21.782Z,96251.88
2023-05-12T01:24:02.808Z,96251.66
2023-05-12T01:26:34.496Z,96258.38
2023-05-12T01:29:07.366Z,96248.63
2023-05-12T01:31:39.220Z,96252.31
2023-05-12T01:34:18.520Z,96244.72
2023-05-12T01:36:53.037Z,96252.31
2023-05-12T01:39:24.678Z,96252.75
2023-05-12T01:41:56.397Z,96253.41
2023-05-12T01:44:28.002Z,96253.19
2023-05-12T01:46:59.830Z,96257.94
2023-05-12T01:49:31.668Z,96252.63
2023-05-12T01:52:03.595Z,96252.00
2023-05-12T01:54:35.260Z,96253.81
2023-05-12T01:57:06.845Z,96255.34
2023-05-12T01:59:38.385Z,96254.91
2023-05-12T02:02:10.020Z,96252.31
2023-05-12T02:04:41.874Z,96255.78
2023-05-12T02:07:15.632Z,96252.31
2023-05-12T02:09:47.231Z,96251.22
2023-05-12T02:12:18.793Z,96252.81
2023-05-12T02:14:50.321Z,96247.25
2023-05-12T02:17:24.235Z,96254.81
2023-05-12T02:19:55.790Z,96255.84
2023-05-12T02:22:27.294Z,96256.28
2023-05-12T02:24:59.149Z,96262.13
2023-05-12T02:27:32.561Z,96255.84
2023-05-12T02:30:05.459Z,96251.06
2023-05-12T02:32:37.049Z,96258.63
2023-05-12T02:35:09.336Z,96258.69
2023-05-12T02:37:41.005Z,96245.38
2023-05-12T02:40:13.147Z,96249.78
2023-05-12T02:42:45.546Z,96244.34
2023-05-12T02:45:17.120Z,96234.81
2023-05-12T02:47:48.789Z,96249.34
2023-05-12T02:50:21.907Z,96243.78
2023-05-12T02:52:53.655Z,96242.19
2023-05-12T02:55:25.268Z,96243.88
2023-05-12T02:57:57.226Z,96244.94
2023-05-12T03:00:28.827Z,96241.47
2023-05-12T03:03:00.488Z,96242.97
2023-05-12T03:05:32.145Z,96249.97
2023-05-12T03:08:03.880Z,96247.63
2023-05-12T03:10:35.508Z,96247.44
2023-05-12T03:13:07.146Z,96249.34
2023-05-12T03:15:38.778Z,96245.59
2023-05-12T03:18:10.627Z,96251.94
2023-05-12T03:20:42.296Z,96243.16
2023-05-12T03:23:14.001Z,96243.97
2023-05-12T03:25:45.568Z,96238.84
2023-05-12T03:28:17.133Z,96238.53
2023-05-12T03:30:48.777Z,96239.38
2023-05-12T03:33:20.282Z,96234.44
2023-05-12T03:35:52.095Z,96236.47
2023-05-12T03:38:23.801Z,96234.72
2023-05-12T03:41:08.765Z,96237.75
2023-05-12T03:43:40.546Z,96238.09
2023-05-12T03:46:12.120Z,96240.09
2023-05-12T03:48:43.867Z,96232.34
2023-05-12T03:51:15.387Z,96231.59
2023-05-12T03:53:47.844Z,96238.72
2023-05-12T03:56:19.452Z,96232.69
2023-05-12T03:58:51.358Z,96233.41
2023-05-12T04:01:22.925Z,96232.28
2023-05-12T04:03:54.604Z,96226.38
2023-05-12T04:06:26.281Z,96229.31
2023-05-12T04:08:57.824Z,96229.75
2023-05-12T04:11:29.402Z,96226.91
2023-05-12T04:14:00.998Z,96227.56
2023-05-12T04:16:32.709Z,96232.56
2023-05-12T04:19:04.408Z,96231.47
2023-05-12T04:21:36.076Z,96232.34
2023-05-12T04:24:08.149Z,96236.06
2023-05-12T04:26:39.669Z,96228.44
2023-05-12T04:29:11.225Z,96232.34
2023-05-12T04:31:43.049Z,96234.44
2023-05-12T04:34:14.695Z,96235.75
2023-05-12T04:36:46.431Z,96241.88
2023-05-12T04:39:17.982Z,96241.00
2023-05-12T04:41:49.596Z,96247.53
2023-05-12T04:44:22.317Z,96251.84
2023-05-12T04:46:56.311Z,96244.81
2023-05-12T04:49:28.034Z,96247.09
2023-05-12T04:51:59.550Z,96244.72
2023-05-12T04:54:35.211Z,96249.28
2023-05-12T04:57:06.800Z,96251.22
2023-05-12T04:59:41.173Z,96255.78
2023-05-12T05:02:13.174Z,96254.88
2023-05-12T05:04:44.796Z,96252.72
2023-05-12T05:07:16.743Z,96254.47
2023-05-12T05:09:48.250Z,96260.88
2023-05-12T05:12:20.406Z,96268.38
2023-05-12T05:14:52.155Z,96262.94
2023-05-12T05:17:23.806Z,96272.41
2023-05-12T05:19:58.987Z,96267.22
2023-05-12T05:22:31.065Z,96262.81
2023-05-12T05:25:02.672Z,96272.00
2023-05-12T05:27:34.295Z,96263.94
2023-05-12T05:30:09.075Z,96264.44
2023-05-12T05:32:41.229Z,96264.75
2023-05-12T05:35:13.428Z,96275.84
2023-05-12T05:37:45.268Z,96274.50
2023-05-12T05:40:16.856Z,96279.41
2023-05-12T05:42:48.366Z,96274.56
2023-05-12T05:45:20.551Z,96276.50
2023-05-12T05:47:53.295Z,96274.88
2023-05-12T05:50:25.128Z,96286.00
2023-05-12T05:52:56.676Z,96279.56
2023-05-12T05:55:28.411Z,96282.84
2023-05-12T05:58:00.109Z,96277.72
2023-05-12T06:00:31.866Z,96275.09
2023-05-12T06:03:03.966Z,96284.16
2023-05-12T06:05:36.017Z,96286.59
2023-05-12T06:08:09.675Z,96279.97
2023-05-12T06:10:41.293Z,96289.94
2023-05-12T06:13:12.891Z,96288.81
2023-05-12T06:15:44.741Z,96288.81
2023-05-12T06:18:16.461Z,96287.47
2023-05-12T06:20:48.020Z,96293.06
2023-05-12T06:23:19.624Z,96298.41
2023-05-12T06:25:51.368Z,96285.84
2023-05-12T06:28:22.944Z,96293.91
2023-05-12T06:30:54.614Z,96297.59
2023-05-12T06:33:26.248Z,96304.47
2023-05-12T06:35:58.271Z,96307.88
2023-05-12T06:38:29.804Z,96299.00
2023-05-12T06:41:01.314Z,96300.81
2023-05-12T06:43:33.173Z,96306.50
2023-05-12T06:46:05.033Z,96301.28
2023-05-12T06:48:36.622Z,96300.97
2023-05-12T06:51:08.639Z,96301.03
2023-05-12T06:53:43.649Z,96297.84
2023-05-12T06:56:17.093Z,96294.28
2023-05-12T06:58:49.326Z,96291.69
2023-05-12T07:01:21.158Z,96285.38
2023-05-12T07:03:52.910Z,96293.75
2023-05-12T07:06:27.637Z,96295.94
2023-05-12T07:08:59.261Z,96284.47
2023-05-12T07:11:31.074Z,96296.13
2023-05-12T07:14:03.279Z,96281.22
2023-05-12T07:16:34.969Z,96286.72
2023-05-12T07:19:09.016Z,96279.69
2023-05-12T07:21:40.751Z,96292.00
2023-05-12T07:24:12.654Z,96288.22
2023-05-12T07:26:44.622Z,96283.00
2023-05-12T07:29:16.211Z,96290.03
2023-05-12T07:31:47.909Z,96288.38
2023-05-12T07:34:19.453Z,96288.59
2023-05-12T07:36:51.173Z,96289.06
2023-05-12T07:39:23.930Z,96285.28
2023-05-12T07:41:55.686Z,96287.03
2023-05-12T07:44:28.229Z,96293.06
2023-05-12T07:46:59.877Z,96288.19
2023-05-12T07:49:31.464Z,96285.13
2023-05-12T07:52:05.639Z,96278.63
2023-05-12T07:54:37.678Z,96285.47
2023-05-12T07:57:09.280Z,96294.25
2023-05-12T07:59:41.325Z,96283.66
2023-05-12T08:02:13.069Z,96292.38
2023-05-12T08:04:44.707Z,96294.84
2023-05-12T08:07:16.719Z,96289.28
2023-05-12T08:09:48.269Z,96283.63
2023-05-12T08:12:19.885Z,96289.69
2023-05-12T08:14:51.569Z,96288.22
2023-05-12T08:17:23.168Z,96291.19
2023-05-12T08:19:54.778Z,96289.53
2023-05-12T08:22:26.806Z,96281.94
2023-05-12T08:24:58.382Z,96292.16
2023-05-12T08:27:30.026Z,96288.34
2023-05-12T08:30:01.637Z,96287.13
2023-05-12T08:32:35.383Z,96287.94
2023-05-12T08:35:07.436Z,96289.66
2023-05-12T08:37:39.122Z,96289.53
2023-05-12T08:40:23.660Z,96284.44
2023-05-12T08:43:07.618Z,96279.56
2023-05-12T08:45:40.550Z,96283.47
2023-05-12T08:48:14.626Z,96285.78
2023-05-12T08:50:49.873Z,96289.50
2023-05-12T08:53:24.182Z,96285.63
2023-05-12T08:57:08.894Z,96287.47
2023-05-12T08:58:50.693Z,96286.34
2023-05-12T09:01:24.758Z,96294.94
2023-05-12T09:03:56.465Z,96290.88
2023-05-12T09:06:29.121Z,96288.38
2023-05-12T09:09:01.103Z,96296.75
2023-05-12T09:11:32.664Z,96297.47
2023-05-12T09:14:06.477Z,96299.97
2023-05-12T09:16:43.634Z,96291.72
2023-05-12T09:19:21.381Z,96300.47
2023-05-12T09:21:52.962Z,96299.31
2023-05-12T09:24:38.999Z,96300.53
2023-05-12T09:27:10.555Z,96295.84
2023-05-12T09:29:59.304Z,96302.03
2023-05-12T09:32:33.085Z,96294.81
2023-05-12T09:35:13.275Z,96290.63
2023-05-12T09:37:46.890Z,96292.97
2023-05-12T09:40:18.962Z,96296.81
2023-05-12T09:42:50.532Z,96291.09
2023-05-12T09:45:24.693Z,96291.97
2023-05-12T09:47:57.617Z,96296.50
2023-05-12T09:50:40.847Z,96294.53
2023-05-12T09:53:20.457Z,96292.53
2023-05-12T09:55:52.154Z,96289.09
2023-05-12T09:58:27.093Z,96288.00
2023-05-12T10:01:18.341Z,96283.00
2023-05-12T10:03:56.760Z,96285.56
2023-05-12T10:06:33.944Z,96284.19
2023-05-12T10:09:20.819Z,96278.56
2023-05-12T10:11:54.103Z,96282.03
2023-05-12T10:14:26.196Z,96279.91
2023-05-12T10:16:59.229Z,96277.31
2023-05-12T10:19:33.474Z,96280.97
2023-05-12T10:22:08.825Z,96271.94
2023-05-12T10:24:41.436Z,96273.38
2023-05-12T10:27:14.838Z,96280.81
2023-05-12T10:29:48.176Z,96284.44
2023-05-12T10:32:20.021Z,96280.34
2023-05-12T10:34:52.136Z,96279.16
2023-05-12T10:37:24.183Z,96269.50
2023-05-12T10:40:04.884Z,96280.97
2023-05-12T10:42:43.113Z,96264.88
2023-05-12T10:45:20.529Z,96270.03
2023-05-12T10:47:52.428Z,96263.81
2023-05-12T10:50:28.496Z,96265.06
2023-05-12T10:53:00.603Z,96272.34
2023-05-12T10:55:45.598Z,96265.03
2023-05-12T10:58:18.015Z,96264.97
2023-05-12T11:00:51.996Z,96272.22
2023-05-12T11:03:25.818Z,96270.63
2023-05-12T11:06:05.472Z,96269.00
2023-05-12T11:08:37.926Z,96262.03
2023-05-12T11:11:11.010Z,96264.88
2023-05-12T11:13:43.549Z,96263.66
2023-05-12T11:16:15.201Z,96263.25
2023-05-12T11:18:47.565Z,96274.72
2023-05-12T11:21:19.192Z,96268.38
2023-05-12T11:23:51.478Z,96269.78
2023-05-12T11:26:23.136Z,96262.97
2023-05-12T11:28:57.256Z,96264.28
2023-05-12T11:31:29.072Z,96268.59
2023-05-12T11:34:12.460Z,96249.53
2023-05-12T11:36:45.345Z,96260.66
2023-05-12T11:39:20.767Z,96252.25
2023-05-12T11:41:56.828Z,96267.88
2023-05-12T11:44:45.945Z,96262.41
2023-05-12T11:47:19.900Z,96261.16
2023-05-12T11:49:56.872Z,96256.34
2023-05-12T11:52:28.562Z,96251.75
2023-05-12T11:55:01.028Z,96252.34
2023-05-12T11:57:37.957Z,96260.00
2023-05-12T12:00:10.171Z,96245.63
2023-05-12T12:02:43.484Z,96258.81
2023-05-12T12:05:20.509Z,96252.75
2023-05-12T12:07:52.364Z,96262.28
2023-05-12T12:10:23.889Z,96251.28
2023-05-12T12:12:55.923Z,96252.91
2023-05-12T12:15:29.108Z,96259.78
2023-05-12T12:18:00.987Z,96253.13
2023-05-12T12:20:32.954Z,96252.00
2023-05-12T12:23:04.496Z,96246.94
2023-05-12T12:25:36.068Z,96250.97
2023-05-12T12:28:08.245Z,96256.06
2023-05-12T12:30:39.892Z,96249.66
2023-05-12T12:33:11.547Z,96248.00
2023-05-12T12:35:43.261Z,96243.19
2023-05-12T12:38:14.803Z,96248.47
2023-05-12T12:40:46.903Z,96254.31
2023-05-12T12:43:18.600Z,96246.59
2023-05-12T12:45:50.487Z,96243.66
2023-05-12T12:48:22.122Z,96234.81
2023-05-12T12:50:53.954Z,96240.50
2023-05-12T12:53:25.482Z,96245.19
2023-05-12T12:55:57.017Z,96242.97
2023-05-12T12:58:29.282Z,96243.22
2023-05-12T13:01:01.925Z,96239.06
2023-05-12T13:03:33.528Z,96245.72
2023-05-12T13:06:05.357Z,96239.41
2023-05-12T13:08:37.003Z,96237.91
2023-05-12T13:11:10.034Z,96238.91
2023-05-12T13:13:41.726Z,96235.72
2023-05-12T13:16:13.460Z,96234.00
2023-05-12T13:18:45.955Z,96229.88
2023-05-12T13:21:18.775Z,96231.38
2023-05-12T13:23:50.359Z,96227.41
2023-05-12T13:26:22.452Z,96226.66
2023-05-12T13:28:54.109Z,96226.97
2023-05-12T13:31:26.636Z,96221.22
2023-05-12T13:33:58.359Z,96224.28
2023-05-12T13:36:32.062Z,96216.56
2023-05-12T13:39:03.924Z,96220.88
2023-05-12T13:41:35.974Z,96215.19
2023-05-12T13:44:07.667Z,96207.00
2023-05-12T13:46:40.181Z,96201.47
2023-05-12T13:49:14.899Z,96201.03
2023-05-12T13:51:47.063Z,96199.84
2023-05-12T13:54:23.012Z,96201.75
2023-05-12T13:56:56.793Z,96190.84
2023-05-12T13:59:31.005Z,96185.78
2023-05-12T14:02:04.075Z,96188.66
2023-05-12T14:04:36.066Z,96199.34
2023-05-12T14:07:08.728Z,96189.81
2023-05-12T14:09:41.297Z,96190.91
2023-05-12T14:12:13.039Z,96186.16
2023-05-12T14:14:49.827Z,96180.63
2023-05-12T14:17:21.379Z,96182.66
2023-05-12T14:19:53.030Z,96192.38
2023-05-12T14:22:26.387Z,96181.94
2023-05-12T14:24:58.478Z,96178.00
2023-05-12T14:27:30.075Z,96182.41
2023-05-12T14:30:02.214Z,96174.66
2023-05-12T14:32:34.397Z,96181.22
2023-05-12T14:35:08.393Z,96190.50
2023-05-12T14:37:40.387Z,96186.06
2023-05-12T14:40:12.977Z,96183.16
2023-05-12T14:42:44.710Z,96188.66
2023-05-12T14:45:16.333Z,96189.00
2023-05-12T14:47:48.261Z,96184.50
2023-05-12T14:50:20.317Z,96187.00
2023-05-12T14:52:52.106Z,96180.91
2023-05-12T14:55:24.512Z,96179.75
2023-05-12T14:57:56.103Z,96180.88
2023-05-12T15:00:27.751Z,96190.06
2023-05-12T15:02:59.545Z,96179.13
2023-05-12T15:05:52.862Z,96179.81
2023-05-12T15:08:23.627Z,96176.41
2023-05-12T15:10:55.337Z,96185.34
2023-05-12T15:13:26.995Z,96187.56
2023-05-12T15:15:58.658Z,96183.63
2023-05-12T15:18:30.951Z,96187.31
2023-05-12T15:21:02.726Z,96183.47
2023-05-12T15:23:34.500Z,96176.50
2023-05-12T15:26:15.983Z,96183.88
2023-05-12T15:28:53.146Z,96184.03
2023-05-12T15:31:25.636Z,96181.78
2023-05-12T15:33:57.843Z,96188.44
2023-05-12T15:36:29.622Z,96184.03
2023-05-12T15:39:03.143Z,96191.19
2023-05-12T15:41:34.646Z,96191.28
2023-05-12T15:44:06.345Z,96190.69
2023-05-12T15:46:38.071Z,96176.81
2023-05-12T15:49:10.232Z,96184.78
2023-05-12T15:51:41.960Z,96175.44
2023-05-12T15:54:13.878Z,96180.50
2023-05-12T15:56:48.069Z,96182.63
2023-05-12T15:59:19.927Z,96187.72
2023-05-12T16:01:51.521Z,96179.44
2023-05-12T16:04:24.454Z,96187.56
2023-05-12T16:06:59.043Z,96189.09
2023-05-12T16:09:30.899Z,96191.38
2023-05-12T16:12:02.514Z,96187.63
2023-05-12T16:14:34.148Z,96194.75
2023-05-12T16:17:05.957Z,96184.44
2023-05-12T16:19:37.475Z,96189.69
2023-05-12T16:22:09.546Z,96186.06
2023-05-12T16:24:41.639Z,96198.72
2023-05-12T16:27:13.328Z,96192.91
2023-05-12T16:29:45.865Z,96193.38
2023-05-12T16:32:17.692Z,96195.88
2023-05-12T16:34:49.500Z,96202.56
2023-05-12T16:37:22.805Z,96186.28
2023-05-12T16:39:54.904Z,96182.91
2023-05-12T16:42:32.689Z,96179.38
2023-05-12T16:45:04.749Z,96192.94
2023-05-12T16:47:36.527Z,96182.25
2023-05-12T16:50:09.463Z,96191.22
2023-05-12T16:52:41.187Z,96187.59
2023-05-12T16:55:12.773Z,96188.94
2023-05-12T16:57:44.390Z,96194.97
2023-05-12T17:00:17.720Z,96190.97
2023-05-12T17:02:49.967Z,96185.38
2023-05-12T17:05:21.994Z,96188.66
2023-05-12T17:07:53.742Z,96191.63
2023-05-12T17:10:26.091Z,96193.66
2023-05-12T17:12:59.545Z,96191.13
2023-05-12T17:15:31.782Z,96193.56
2023-05-12T17:18:03.745Z,96202.31
2023-05-12T17:20:35.547Z,96199.81
2023-05-12T17:23:08.266Z,96203.06
2023-05-12T17:25:39.897Z,96207.03
2023-05-12T17:28:11.477Z,96212.25
2023-05-12T17:30:43.197Z,96206.31
2023-05-12T17:33:15.685Z,96215.28
2023-05-12T17:35:56.528Z,96208.72
2023-05-12T17:38:35.384Z,96217.88
2023-05-12T17:41:06.925Z,96226.28
2023-05-12T17:43:38.509Z,96215.59
2023-05-12T17:46:10.305Z,96212.19
2023-05-12T17:48:41.926Z,96222.63
2023-05-12T17:51:13.529Z,96217.00
2023-05-12T17:53:45.218Z,96223.88
2023-05-12T17:56:16.775Z,96221.59
2023-05-12T17:58:48.453Z,96226.16
2023-05-12T18:01:20.133Z,96218.56
2023-05-12T18:03:52.880Z,96223.19
2023-05-12T18:06:24.588Z,96224.31
2023-05-12T18:08:56.681Z,96226.34
2023-05-12T18:11:29.217Z,96224.31
2023-05-12T18:14:05.717Z,96224.69
2023-05-12T18:16:37.509Z,96232.25
2023-05-12T18:19:10.781Z,96231.47
2023-05-12T18:21:42.463Z,96235.94
2023-05-12T18:24:14.279Z,96243.13
2023-05-12T18:26:47.170Z,96242.72
2023-05-12T18:29:18.700Z,96247.28
2023-05-12T18:31:50.405Z,96243.88
2023-05-12T18:34:22.214Z,96247.97
2023-05-12T18:36:53.904Z,96236.06
2023-05-12T18:39:26.124Z,96255.50
2023-05-12T18:41:57.801Z,96256.81
2023-05-12T18:44:29.513Z,96249.81
2023-05-12T18:47:01.309Z,96255.72
2023-05-12T18:49:33.234Z,96251.13
2023-05-12T18:52:05.242Z,96253.44
2023-05-12T18:54:39.838Z,96264.41
2023-05-12T18:57:12.376Z,96263.63
2023-05-12T18:59:44.013Z,96269.56
2023-05-12T19:02:15.559Z,96270.72
2023-05-12T19:04:47.957Z,96259.81
2023-05-12T19:07:19.734Z,96273.56
2023-05-12T19:09:51.438Z,96275.84
2023-05-12T19:12:24.026Z,96288.53
2023-05-12T19:14:55.620Z,96287.91
2023-05-12T19:17:28.299Z,96297.13
2023-05-12T19:19:59.900Z,96292.94
2023-05-12T19:22:31.554Z,96297.81
2023-05-12T19:25:04.275Z,96296.44
2023-05-12T19:27:35.921Z,96297.72
2023-05-12T19:30:08.168Z,96304.75
2023-05-12T19:32:42.397Z,96307.97
2023-05-12T19:35:15.060Z,96313.31
2023-05-12T19:37:47.079Z,96304.75
2023-05-12T19:40:18.816Z,96310.53
2023-05-12T19:42:52.718Z,96321.72
2023-05-12T19:45:24.430Z,96315.59
2023-05-12T19:47:56.764Z,96306.75
2023-05-12T19:50:29.014Z,96316.34
2023-05-12T19:53:00.658Z,96318.72
2023-05-12T19:55:32.999Z,96315.59
2023-05-12T19:58:04.659Z,96317.88
2023-05-12T20:00:39.290Z,96315.03
2023-05-12T20:03:14.148Z,96311.31
2023-05-12T20:05:48.538Z,96310.53
2023-05-12T20:08:20.540Z,96315.53
2023-05-12T20:10:58.984Z,96321.72
2023-05-12T20:13:31.754Z,96311.03
2023-05-12T20:16:03.637Z,96316.28
2023-05-12T20:18:35.392Z,96315.16
2023-05-12T20:21:06.944Z,96336.16
2023-05-12T20:23:38.590Z,96325.34
2023-05-12T20:26:10.714Z,96326.38
2023-05-12T20:28:42.204Z,96333.22
2023-05-12T20:31:13.842Z,96335.06
2023-05-12T20:33:45.604Z,96340.34
2023-05-12T20:36:17.127Z,96333.03
2023-05-12T20:38:48.699Z,96339.53
2023-05-12T20:41:20.388Z,96326.28
2023-05-12T20:43:52.014Z,96333.22
2023-05-12T20:46:23.702Z,96333.44
2023-05-12T20:48:55.332Z,96331.72
2023-05-12T20:51:26.991Z,96335.19
2023-05-12T20:53:58.805Z,96338.56
2023-05-12T20:56:30.498Z,96334.38
2023-05-12T20:59:02.384Z,96331.84
2023-05-12T21:01:34.010Z,96329.66
2023-05-12T21:04:05.859Z,96339.56
2023-05-12T21:06:37.573Z,96340.84
2023-05-12T21:09:09.148Z,96338.38
2023-05-12T21:11:41.554Z,96341.72
2023-05-12T21:14:13.100Z,96340.19
2023-05-12T21:16:45.089Z,96333.69
2023-05-12T21:19:16.774Z,96341.72
2023-05-12T21:21:48.334Z,96334.13
2023-05-12T21:24:19.937Z,96336.94
2023-05-12T21:26:51.550Z,96334.31
2023-05-12T21:29:23.124Z,96339.09
2023-05-12T21:31:54.733Z,96345.59
2023-05-12T21:34:27.172Z,96339.13
2023-05-12T21:37:00.050Z,96334.56
2023-05-12T21:39:31.984Z,96335.00
2023-05-12T21:42:03.970Z,96339.31
2023-05-12T21:44:35.657Z,96336.13
2023-05-12T21:47:07.676Z,96333.25
2023-05-12T21:49:39.248Z,96343.41
2023-05-12T21:52:12.210Z,96331.69
2023-05-12T21:54:43.776Z,96335.16
2023-05-12T21:57:15.397Z,96329.56
2023-05-12T21:59:47.039Z,96339.09
2023-05-12T22:02:18.660Z,96338.25
2023-05-12T22:04:50.188Z,96344.91
2023-05-12T22:07:22.091Z,96340.63
2023-05-12T22:09:53.752Z,96346.53
2023-05-12T22:12:25.339Z,96337.72
2023-05-12T22:14:56.953Z,96342.00
2023-05-12T22:17:28.627Z,96343.94
2023-05-12T22:20:00.485Z,96341.34
2023-05-12T22:22:32.138Z,96335.81
2023-05-12T22:25:04.704Z,96346.44
2023-05-12T22:27:37.418Z,96346.69
2023-05-12T22:30:10.452Z,96338.00
2023-05-12T22:32:42.057Z,96343.28
2023-05-12T22:35:13.781Z,96342.09
2023-05-12T22:37:45.384Z,96344.94
2023-05-12T22:40:17.077Z,96345.59
2023-05-12T22:42:48.775Z,96343.56
2023-05-12T22:45:20.564Z,96353.53
2023-05-12T22:47:52.372Z,96350.84
2023-05-12T22:50:24.178Z,96352.13
2023-05-12T22:52:58.370Z,96350.84
2023-05-12T22:55:32.974Z,96361.03
2023-05-12T22:58:04.619Z,96352.69
2023-05-12T23:00:38.764Z,96357.78
2023-05-12T23:03:10.655Z,96356.91
2023-05-12T23:05:42.419Z,96355.41
2023-05-12T23:08:14.027Z,96358.19
2023-05-12T23:10:45.910Z,96355.81
2023-05-12T23:13:17.574Z,96361.69
2023-05-12T23:15:49.395Z,96359.31
2023-05-12T23:18:21.177Z,96350.06
2023-05-12T23:20:52.723Z,96350.63
2023-05-12T23:23:24.412Z,96350.84
2023-05-12T23:25:56.106Z,96358.66
2023-05-12T23:28:27.700Z,96351.81
2023-05-12T23:31:01.815Z,96359.75
2023-05-12T23:33:33.435Z,96353.56
2023-05-12T23:36:05.535Z,96364.41
2023-05-12T23:38:37.121Z,96369.25
2023-05-12T23:41:08.722Z,96361.84
2023-05-12T23:43:42.292Z,96358.31
2023-05-12T23:46:15.021Z,96355.03
2023-05-12T23:48:49.817Z,96357.56
2023-05-12T23:51:21.474Z,96352.16
2023-05-12T23:53:53.137Z,96354.72
2023-05-12T23:56:24.789Z,96352.34
2023-05-12T23:58:56.424Z,96357.31
